Time;durP1;ratioP1;P1;durP2;ratioP2;P2;SDS_P1;SDS_P2;PMS_P1;PMS_P2;Temp;Humidity;BMP_temperature;BMP_pressure;BME280_temperature;BME280_humidity;BME280_pressure;Samples;Min_cycle;Max_cycle;Signal;HPM_P1;HPM_P2
2023/09/03 00:00:36;;;;;;;30.98;12.98;;;16.30;99.90;;;;;;5075792;28;20052;-85
2023/09/03 00:03:03;;;;;;;36.85;14.90;;;16.30;99.90;;;;;;5077905;28;20044;-84
2023/09/03 00:05:30;;;;;;;35.90;15.10;;;16.30;99.90;;;;;;5086252;28;20043;-84
2023/09/03 00:07:59;;;;;;;31.00;14.68;;;16.30;99.90;;;;;;5061358;28;20040;-82
2023/09/03 00:10:25;;;;;;;40.30;15.63;;;16.30;99.90;;;;;;5071071;28;20049;-85
2023/09/03 00:12:52;;;;;;;33.10;14.57;;;16.20;99.90;;;;;;5091063;28;20044;-81
2023/09/03 00:15:23;;;;;;;30.17;13.57;;;16.20;99.90;;;;;;5076581;28;20123;-82
2023/09/03 00:17:51;;;;;;;36.50;15.93;;;16.20;99.90;;;;;;5091256;28;20036;-81
2023/09/03 00:20:18;;;;;;;32.85;15.30;;;16.20;99.90;;;;;;5081498;28;20421;-85
2023/09/03 00:22:45;;;;;;;36.67;15.57;;;16.10;99.90;;;;;;5084206;28;20045;-83
2023/09/03 00:25:12;;;;;;;39.70;16.52;;;16.10;99.90;;;;;;5088092;28;20051;-85
2023/09/03 00:27:39;;;;;;;34.63;14.77;;;16.10;99.90;;;;;;5069209;28;20101;-84
2023/09/03 00:30:06;;;;;;;40.83;16.13;;;16.00;99.90;;;;;;5093951;28;20047;-83
2023/09/03 00:32:32;;;;;;;35.15;16.33;;;16.00;99.90;;;;;;5085083;28;20043;-81
2023/09/03 00:35:00;;;;;;;37.75;15.18;;;16.00;99.90;;;;;;5094650;28;20457;-84
2023/09/03 00:37:27;;;;;;;39.67;17.85;;;15.90;99.90;;;;;;5084121;28;20040;-86
2023/09/03 00:39:54;;;;;;;34.58;15.00;;;15.90;99.90;;;;;;5095542;28;20040;-82
2023/09/03 00:42:21;;;;;;;34.17;14.68;;;15.90;99.90;;;;;;5081827;28;20035;-82
2023/09/03 00:44:48;;;;;;;28.38;13.27;;;15.90;99.90;;;;;;5096155;28;20118;-84
2023/09/03 00:47:15;;;;;;;35.13;15.95;;;15.90;99.90;;;;;;5091412;28;20051;-82
2023/09/03 00:49:42;;;;;;;32.13;14.25;;;15.80;99.90;;;;;;5075684;28;20075;-83
2023/09/03 00:52:09;;;;;;;30.92;13.50;;;15.80;99.90;;;;;;5056679;28;20063;-83
2023/09/03 00:54:36;;;;;;;33.75;14.10;;;15.80;99.90;;;;;;5070190;28;20423;-82
2023/09/03 00:57:04;;;;;;;31.00;13.70;;;15.80;99.90;;;;;;5075632;28;20043;-85
2023/09/03 00:59:30;;;;;;;24.88;10.80;;;15.70;99.90;;;;;;5058078;28;20094;-83
2023/09/03 01:01:58;;;;;;;28.27;11.68;;;15.70;99.90;;;;;;5057844;28;20044;-82
2023/09/03 01:04:25;;;;;;;27.20;12.13;;;15.50;99.90;;;;;;5052217;28;20048;-81
2023/09/03 01:06:52;;;;;;;29.98;13.35;;;15.40;99.90;;;;;;5068904;28;20048;-83
2023/09/03 01:09:19;;;;;;;28.13;13.05;;;15.40;99.90;;;;;;5052229;28;20044;-81
2023/09/03 01:11:46;;;;;;;29.70;12.98;;;15.40;99.90;;;;;;5058666;28;20114;-84
2023/09/03 01:14:13;;;;;;;25.83;12.75;;;15.30;99.90;;;;;;5075674;28;20032;-85
2023/09/03 01:16:40;;;;;;;24.27;11.02;;;15.40;99.90;;;;;;5040530;28;20045;-80
2023/09/03 01:19:07;;;;;;;26.70;12.45;;;15.40;99.90;;;;;;5032065;28;20071;-80
2023/09/03 01:21:33;;;;;;;23.55;10.23;;;15.30;99.90;;;;;;5041531;28;20095;-85
2023/09/03 01:24:00;;;;;;;28.40;13.13;;;15.30;99.90;;;;;;5037334;28;20463;-82
2023/09/03 01:26:27;;;;;;;28.67;13.57;;;15.30;99.90;;;;;;5043551;28;20040;-83
2023/09/03 01:28:56;;;;;;;28.38;12.60;;;15.30;99.90;;;;;;5051467;28;20057;-84
2023/09/03 01:31:23;;;;;;;30.67;13.18;;;15.30;99.90;;;;;;5069159;28;20427;-84
2023/09/03 01:33:50;;;;;;;28.30;13.48;;;15.20;99.90;;;;;;5037736;28;20235;-82
2023/09/03 01:36:16;;;;;;;27.30;12.38;;;15.20;99.90;;;;;;5041614;28;20045;-83
2023/09/03 01:38:45;;;;;;;27.15;12.25;;;15.20;99.90;;;;;;5038230;28;20407;-84
2023/09/03 01:41:13;;;;;;;23.48;11.40;;;15.10;99.90;;;;;;5030970;28;20131;-83
2023/09/03 01:43:41;;;;;;;28.10;11.82;;;15.00;99.90;;;;;;5059341;28;20064;-84
2023/09/03 01:46:18;;;;;;;23.45;10.00;;;15.00;99.90;;;;;;5037373;28;20066;-80
2023/09/03 01:48:45;;;;;;;24.50;11.73;;;15.00;99.90;;;;;;5044910;28;20099;-82
2023/09/03 01:51:12;;;;;;;27.20;11.40;;;15.00;99.90;;;;;;5058598;28;20056;-83
2023/09/03 01:53:39;;;;;;;24.02;10.90;;;15.00;99.90;;;;;;5068281;28;20474;-86
2023/09/03 01:56:06;;;;;;;26.38;12.10;;;15.00;99.90;;;;;;5077840;28;20455;-83
2023/09/03 01:58:33;;;;;;;22.73;10.18;;;14.90;99.90;;;;;;5066621;28;20050;-83
2023/09/03 02:01:00;;;;;;;22.98;11.38;;;14.90;99.90;;;;;;5093140;28;20040;-83
2023/09/03 02:03:27;;;;;;;23.20;10.32;;;14.90;99.90;;;;;;5081553;28;20516;-86
2023/09/03 02:05:54;;;;;;;26.60;12.30;;;14.90;99.90;;;;;;5077685;28;20117;-82
2023/09/03 02:08:21;;;;;;;27.30;12.25;;;14.80;99.90;;;;;;5071149;28;20048;-81
2023/09/03 02:10:48;;;;;;;25.35;11.65;;;14.80;99.90;;;;;;5087088;28;20550;-81
2023/09/03 02:13:19;;;;;;;29.10;11.48;;;14.80;99.90;;;;;;5089381;28;20114;-80
2023/09/03 02:15:46;;;;;;;29.20;12.57;;;14.80;99.90;;;;;;5074297;28;20075;-81
2023/09/03 02:18:14;;;;;;;27.40;11.63;;;14.70;99.90;;;;;;5073946;28;20137;-84
2023/09/03 02:20:41;;;;;;;25.80;11.48;;;14.80;99.90;;;;;;5094627;28;20040;-84
2023/09/03 02:23:07;;;;;;;25.35;11.38;;;14.70;99.90;;;;;;5077458;28;20040;-83
2023/09/03 02:25:34;;;;;;;33.90;11.27;;;14.70;99.90;;;;;;5087792;28;20040;-84
2023/09/03 02:28:01;;;;;;;31.65;11.98;;;14.70;99.90;;;;;;5056529;28;20044;-84
2023/09/03 02:30:28;;;;;;;22.35;11.45;;;14.60;99.90;;;;;;5074269;28;20048;-83
2023/09/03 02:32:54;;;;;;;19.88;9.48;;;14.60;99.90;;;;;;5074501;28;20053;-82
2023/09/03 02:35:22;;;;;;;22.83;10.60;;;14.50;99.90;;;;;;5074355;28;20106;-84
2023/09/03 02:40:37;;;;;;;20.33;10.07;;;14.40;99.90;;;;;;5078869;28;20466;-81
2023/09/03 02:43:03;;;;;;;18.52;8.57;;;14.40;99.90;;;;;;5060551;28;20375;-85
2023/09/03 02:45:30;;;;;;;22.33;9.32;;;14.40;99.90;;;;;;5060455;28;20044;-85
2023/09/03 02:47:58;;;;;;;18.50;8.93;;;14.40;99.90;;;;;;5076194;28;20131;-84
2023/09/03 02:50:27;;;;;;;18.20;9.15;;;14.40;99.90;;;;;;5079523;28;20057;-84
2023/09/03 02:52:54;;;;;;;19.67;8.75;;;14.30;99.90;;;;;;5093893;28;20040;-84
2023/09/03 02:55:21;;;;;;;20.88;9.60;;;14.30;99.90;;;;;;5082677;28;20463;-83
2023/09/03 02:57:48;;;;;;;20.10;9.63;;;14.30;99.90;;;;;;5075043;28;20386;-81
2023/09/03 03:00:16;;;;;;;23.50;10.02;;;14.30;99.90;;;;;;5073541;28;20391;-85
2023/09/03 03:02:43;;;;;;;17.88;9.05;;;14.30;99.90;;;;;;5071036;28;20044;-81
2023/09/03 03:05:11;;;;;;;22.25;10.13;;;14.30;99.90;;;;;;5081331;28;20036;-84
2023/09/03 03:07:40;;;;;;;21.70;9.65;;;14.30;99.90;;;;;;5092874;28;20446;-83
2023/09/03 03:10:07;;;;;;;20.55;10.63;;;14.20;99.90;;;;;;5093589;28;20051;-84
2023/09/03 03:12:37;;;;;;;24.85;10.13;;;14.20;99.90;;;;;;5093645;28;20131;-85
2023/09/03 03:15:04;;;;;;;21.63;9.20;;;14.20;99.90;;;;;;5092733;28;20474;-80
2023/09/03 03:17:34;;;;;;;16.83;8.40;;;14.10;99.90;;;;;;5093749;28;20496;-81
2023/09/03 03:20:01;;;;;;;21.42;9.55;;;14.10;99.90;;;;;;5074748;28;20037;-82
2023/09/03 03:22:27;;;;;;;20.05;9.10;;;14.00;99.90;;;;;;5073639;28;20406;-81
2023/09/03 03:24:55;;;;;;;20.67;9.63;;;13.90;99.90;;;;;;5059642;28;20040;-87
2023/09/03 03:27:23;;;;;;;20.73;9.70;;;13.80;99.90;;;;;;5068374;28;20532;-84
2023/09/03 03:29:51;;;;;;;18.58;9.35;;;13.80;99.90;;;;;;5089075;28;20059;-85
2023/09/03 03:32:18;;;;;;;25.15;10.95;;;13.80;99.90;;;;;;5074426;28;20052;-81
2023/09/03 03:34:49;;;;;;;22.17;10.20;;;13.80;99.90;;;;;;5060535;28;20041;-81
2023/09/03 03:40:03;;;;;;;26.00;9.65;;;13.90;99.90;;;;;;5090757;28;20044;-81
2023/09/03 03:42:33;;;;;;;20.35;9.32;;;13.90;99.90;;;;;;5077133;28;20127;-82
2023/09/03 03:45:00;;;;;;;18.13;8.73;;;13.80;99.90;;;;;;5074322;28;20135;-80
2023/09/03 03:47:28;;;;;;;19.95;9.40;;;13.80;99.90;;;;;;5091025;28;20132;-82
2023/09/03 03:49:54;;;;;;;19.90;9.38;;;13.80;99.90;;;;;;5075676;28;20459;-82
2023/09/03 03:52:22;;;;;;;18.92;9.57;;;13.80;99.90;;;;;;5027887;28;20044;-82
2023/09/03 03:54:48;;;;;;;23.10;9.05;;;13.80;99.90;;;;;;5063054;28;20041;-84
2023/09/03 03:57:16;;;;;;;20.85;9.93;;;13.70;99.90;;;;;;5048100;28;20127;-83
2023/09/03 03:59:43;;;;;;;23.15;9.93;;;13.80;99.90;;;;;;5076251;28;20094;-81
2023/09/03 04:02:10;;;;;;;21.98;10.40;;;13.70;99.90;;;;;;5066588;28;20036;-80
2023/09/03 04:04:37;;;;;;;17.83;8.20;;;13.70;99.90;;;;;;5057752;28;20463;-82
2023/09/03 04:07:04;;;;;;;24.55;9.65;;;13.70;99.90;;;;;;5050637;28;20033;-85
2023/09/03 04:09:31;;;;;;;24.65;10.35;;;13.70;99.90;;;;;;5055073;28;20145;-80
2023/09/03 04:11:57;;;;;;;28.20;11.60;;;13.70;99.90;;;;;;5060101;28;20076;-83
2023/09/03 04:14:24;;;;;;;23.80;10.85;;;13.70;99.90;;;;;;5042891;28;20513;-83
2023/09/03 04:16:51;;;;;;;23.60;10.88;;;13.60;99.90;;;;;;5077438;28;20101;-81
2023/09/03 04:19:18;;;;;;;28.15;11.98;;;13.60;99.90;;;;;;5059658;28;20064;-85
2023/09/03 04:21:44;;;;;;;29.13;12.40;;;13.50;99.90;;;;;;5059095;28;20451;-82
2023/09/03 04:24:12;;;;;;;25.10;10.75;;;13.60;99.90;;;;;;5059627;28;20540;-82
2023/09/03 04:26:38;;;;;;;29.67;12.23;;;13.60;99.90;;;;;;5056651;28;20045;-81
2023/09/03 04:29:06;;;;;;;31.00;12.45;;;13.70;99.90;;;;;;5023151;28;20049;-83
2023/09/03 04:31:35;;;;;;;29.55;11.82;;;13.70;99.90;;;;;;5024284;28;20048;-84
2023/09/03 04:34:05;;;;;;;36.63;11.85;;;13.80;99.90;;;;;;5051699;28;20135;-81
2023/09/03 04:36:34;;;;;;;27.55;11.57;;;13.80;99.90;;;;;;5038564;28;20049;-83
2023/09/03 04:39:03;;;;;;;39.28;12.75;;;13.80;99.90;;;;;;5045336;28;20117;-83
2023/09/03 04:41:31;;;;;;;44.97;14.73;;;13.90;99.90;;;;;;5058628;28;20167;-85
2023/09/03 04:43:57;;;;;;;49.28;14.30;;;13.90;99.90;;;;;;5059435;28;20028;-85
2023/09/03 04:46:25;;;;;;;50.63;15.00;;;14.00;99.90;;;;;;5058827;28;20045;-82
2023/09/03 04:48:52;;;;;;;46.05;14.98;;;13.90;99.90;;;;;;5076748;28;20143;-83
2023/09/03 04:51:19;;;;;;;46.30;13.52;;;13.90;99.90;;;;;;5081658;28;20052;-84
2023/09/03 04:53:46;;;;;;;51.17;15.00;;;14.00;99.90;;;;;;5095345;28;20076;-80
2023/09/03 04:56:14;;;;;;;64.25;15.27;;;14.00;99.90;;;;;;5095906;28;20101;-82
2023/09/03 04:58:43;;;;;;;61.58;15.63;;;14.10;99.90;;;;;;5095767;28;20363;-81
2023/09/03 05:01:10;;;;;;;78.88;14.90;;;14.10;99.90;;;;;;5093595;28;20059;-84
2023/09/03 05:03:37;;;;;;;46.65;14.98;;;14.10;99.90;;;;;;5084804;28;20031;-85
2023/09/03 05:06:04;;;;;;;42.53;14.20;;;14.20;99.90;;;;;;5095662;28;20044;-84
2023/09/03 05:08:33;;;;;;;63.05;14.48;;;14.20;99.90;;;;;;5077929;28;20094;-83
2023/09/03 05:11:03;;;;;;;58.22;14.60;;;14.20;99.90;;;;;;5096014;28;20135;-84
2023/09/03 05:13:30;;;;;;;63.58;15.98;;;14.20;99.90;;;;;;5094808;28;20408;-85
2023/09/03 05:15:57;;;;;;;63.08;15.30;;;14.30;99.90;;;;;;5083501;28;20058;-82
2023/09/03 05:18:24;;;;;;;48.92;16.02;;;14.30;99.90;;;;;;5058870;28;20050;-84
2023/09/03 05:20:51;;;;;;;48.55;16.95;;;14.30;99.90;;;;;;5085946;28;20047;-83
2023/09/03 05:23:19;;;;;;;43.15;15.73;;;14.30;99.90;;;;;;5078370;28;20404;-81
2023/09/03 05:25:48;;;;;;;42.35;16.38;;;14.30;99.90;;;;;;5075278;28;20055;-82
2023/09/03 05:28:15;;;;;;;36.42;14.60;;;14.20;99.90;;;;;;5074114;28;20037;-84
2023/09/03 05:30:42;;;;;;;50.42;14.68;;;14.30;99.90;;;;;;5059169;28;20431;-82
2023/09/03 05:33:09;;;;;;;64.13;16.98;;;14.30;99.90;;;;;;5075199;28;20435;-86
2023/09/03 05:35:36;;;;;;;43.08;14.43;;;14.40;99.90;;;;;;5089400;28;20044;-84
2023/09/03 05:38:05;;;;;;;62.22;15.55;;;14.50;99.90;;;;;;5087229;28;20047;-86
2023/09/03 05:40:32;;;;;;;48.47;14.65;;;14.50;99.90;;;;;;5075542;28;20040;-83
2023/09/03 05:42:59;;;;;;;40.60;14.60;;;14.50;99.90;;;;;;5058192;28;20471;-82
2023/09/03 05:45:26;;;;;;;51.55;13.90;;;14.60;99.90;;;;;;5094442;28;20048;-83
2023/09/03 05:50:41;;;;;;;42.28;12.57;;;14.70;99.90;;;;;;5080525;28;20059;-83
2023/09/03 05:53:08;;;;;;;98.28;15.63;;;14.80;99.90;;;;;;5060348;28;20048;-82
2023/09/03 05:55:39;;;;;;;58.70;14.15;;;14.80;99.90;;;;;;5087214;28;20543;-81
2023/09/03 06:00:53;;;;;;;42.92;12.63;;;14.80;99.90;;;;;;5087112;28;20082;-84
2023/09/03 06:03:20;;;;;;;70.03;11.55;;;14.90;99.90;;;;;;5074022;28;20529;-84
2023/09/03 06:05:46;;;;;;;54.58;11.45;;;15.00;99.90;;;;;;5074769;28;20052;-81
2023/09/03 06:08:14;;;;;;;44.75;10.68;;;15.00;99.90;;;;;;5077761;28;20150;-84
2023/09/03 06:10:41;;;;;;;64.15;11.38;;;15.00;99.90;;;;;;5095564;28;20048;-85
2023/09/03 06:13:08;;;;;;;44.83;10.82;;;15.00;99.90;;;;;;5094871;28;20130;-82
2023/09/03 06:15:34;;;;;;;37.25;10.40;;;15.00;99.90;;;;;;5094556;28;20406;-83
2023/09/03 06:18:03;;;;;;;32.95;9.20;;;15.00;99.90;;;;;;5077071;28;20129;-85
2023/09/03 06:20:37;;;;;;;42.80;10.52;;;15.00;99.90;;;;;;5081855;28;20447;-83
2023/09/03 06:23:03;;;;;;;48.55;11.13;;;15.20;99.90;;;;;;5095207;28;20044;-80
2023/09/03 06:25:30;;;;;;;25.67;10.02;;;15.20;99.90;;;;;;5095078;28;20047;-81
2023/09/03 06:27:57;;;;;;;25.70;7.78;;;15.20;99.90;;;;;;5080550;28;20090;-81
2023/09/03 06:30:24;;;;;;;43.55;9.27;;;15.20;99.90;;;;;;5094276;28;20123;-83
2023/09/03 06:32:50;;;;;;;33.67;8.63;;;15.20;99.90;;;;;;5094457;28;20086;-83
2023/09/03 06:35:17;;;;;;;29.77;8.82;;;15.10;99.90;;;;;;5080007;28;20115;-82
2023/09/03 06:37:44;;;;;;;33.22;8.63;;;15.20;99.90;;;;;;5074553;28;20052;-82
2023/09/03 06:40:14;;;;;;;21.83;8.23;;;15.20;99.90;;;;;;5087621;28;20097;-83
2023/09/03 06:42:41;;;;;;;25.30;9.55;;;15.10;99.90;;;;;;5083599;28;20105;-85
2023/09/03 06:45:08;;;;;;;26.23;9.18;;;15.10;99.90;;;;;;5094662;28;20051;-83
2023/09/03 06:47:38;;;;;;;23.83;9.52;;;15.30;99.90;;;;;;5080873;28;20048;-85
2023/09/03 06:50:05;;;;;;;22.15;8.40;;;15.40;99.90;;;;;;5084659;28;20143;-82
2023/09/03 06:52:34;;;;;;;30.42;10.15;;;15.60;99.90;;;;;;5040871;28;20471;-83
2023/09/03 06:55:01;;;;;;;26.48;9.50;;;15.70;99.90;;;;;;5073823;28;20432;-83
2023/09/03 06:57:27;;;;;;;40.10;10.57;;;15.70;99.90;;;;;;5057229;28;20040;-80
2023/09/03 06:59:55;;;;;;;27.50;10.00;;;15.80;99.90;;;;;;5066907;28;20044;-82
2023/09/03 07:02:22;;;;;;;50.17;12.18;;;15.90;99.90;;;;;;5036962;28;20080;-85
2023/09/03 07:04:49;;;;;;;38.05;10.93;;;15.90;99.90;;;;;;5041276;28;20154;-83
2023/09/03 07:10:02;;;;;;;27.80;12.70;;;16.10;99.90;;;;;;5068841;28;20459;-85
2023/09/03 07:12:28;;;;;;;30.35;12.65;;;16.20;99.90;;;;;;5048817;28;20051;-82
2023/09/03 07:14:55;;;;;;;27.42;11.93;;;16.10;99.90;;;;;;5055915;28;20033;-86
2023/09/03 07:17:22;;;;;;;31.55;12.70;;;16.10;99.90;;;;;;5064192;28;20064;-81
2023/09/03 07:19:49;;;;;;;28.48;11.75;;;16.20;99.90;;;;;;5059461;28;20538;-82
2023/09/03 07:22:15;;;;;;;29.80;11.82;;;16.20;99.90;;;;;;5066344;28;20064;-85
2023/09/03 07:24:42;;;;;;;28.00;11.77;;;16.20;99.90;;;;;;5020469;28;20045;-82
2023/09/03 07:29:55;;;;;;;26.98;12.07;;;16.30;99.90;;;;;;5073143;28;20052;-81
2023/09/03 07:32:22;;;;;;;33.35;11.60;;;16.30;99.90;;;;;;5061723;28;20036;-83
2023/09/03 07:34:49;;;;;;;29.08;12.63;;;16.40;99.90;;;;;;5059813;28;20128;-82
2023/09/03 07:37:18;;;;;;;30.45;12.13;;;16.60;99.90;;;;;;5036664;28;20124;-84
2023/09/03 07:39:45;;;;;;;28.52;12.13;;;16.70;99.90;;;;;;5036790;28;20425;-82
2023/09/03 07:42:11;;;;;;;31.10;12.27;;;16.80;99.90;;;;;;5040999;28;20120;-85
2023/09/03 07:44:39;;;;;;;29.35;12.20;;;17.10;99.90;;;;;;5046414;28;20449;-81
2023/09/03 07:47:08;;;;;;;25.40;11.55;;;17.10;99.90;;;;;;5049942;28;20040;-84
2023/09/03 07:49:35;;;;;;;27.40;12.38;;;17.20;99.90;;;;;;5063061;28;20069;-84
2023/09/03 07:52:02;;;;;;;27.70;12.07;;;17.20;99.90;;;;;;5041618;28;20364;-83
2023/09/03 07:54:28;;;;;;;27.17;11.18;;;17.30;99.90;;;;;;5035898;28;20440;-82
2023/09/03 07:56:55;;;;;;;27.30;11.57;;;17.30;99.90;;;;;;5036619;28;20056;-84
2023/09/03 07:59:22;;;;;;;30.75;11.82;;;17.30;99.90;;;;;;5036439;28;20048;-83
2023/09/03 08:01:48;;;;;;;29.58;12.07;;;17.30;99.90;;;;;;5061217;28;20033;-86
2023/09/03 08:04:15;;;;;;;26.05;11.82;;;17.40;99.90;;;;;;5042506;28;20372;-86
2023/09/03 08:06:42;;;;;;;28.92;11.65;;;17.50;99.90;;;;;;5037074;28;20041;-85
2023/09/03 08:09:09;;;;;;;24.13;11.57;;;17.70;99.90;;;;;;5066032;28;20119;-86
2023/09/03 08:11:36;;;;;;;26.63;11.70;;;17.80;99.90;;;;;;5044617;28;20460;-90
2023/09/03 08:14:03;;;;;;;24.83;11.45;;;17.90;99.90;;;;;;5042863;28;20045;-85
2023/09/03 08:16:30;;;;;;;26.48;10.90;;;18.10;99.90;;;;;;5057558;28;20079;-87
2023/09/03 08:21:44;;;;;;;23.17;10.90;;;18.40;99.90;;;;;;5055629;28;20133;-88
2023/09/03 08:24:11;;;;;;;22.75;10.55;;;18.70;99.90;;;;;;5067553;28;20036;-88
2023/09/03 08:26:38;;;;;;;22.85;9.90;;;19.00;99.90;;;;;;5067036;28;20111;-86
2023/09/03 08:29:06;;;;;;;21.83;9.57;;;19.20;99.90;;;;;;5073885;28;20094;-87
2023/09/03 08:31:33;;;;;;;23.05;10.45;;;19.50;99.90;;;;;;5046175;28;20041;-85
2023/09/03 08:34:00;;;;;;;22.00;10.85;;;19.70;99.90;;;;;;5076527;28;20043;-84
2023/09/03 08:36:26;;;;;;;20.90;10.70;;;19.90;99.90;;;;;;5077186;28;20067;-85
2023/09/03 08:38:54;;;;;;;21.60;10.32;;;20.00;99.90;;;;;;5029279;28;20062;-87
2023/09/03 08:41:21;;;;;;;20.40;10.05;;;20.10;99.90;;;;;;5030796;28;20049;-86
2023/09/03 08:43:48;;;;;;;20.90;10.20;;;20.30;99.90;;;;;;5051177;28;20037;-87
2023/09/03 08:46:14;;;;;;;24.52;10.10;;;20.50;99.90;;;;;;5039720;28;20052;-87
2023/09/03 08:51:29;;;;;;;21.45;10.90;;;20.90;99.90;;;;;;5072174;28;20048;-87
2023/09/03 08:53:56;;;;;;;20.08;10.05;;;20.90;99.90;;;;;;5097902;28;20040;-88
2023/09/03 08:56:23;;;;;;;19.30;10.23;;;21.00;99.90;;;;;;5078681;28;20055;-82
2023/09/03 08:58:49;;;;;;;19.95;10.13;;;21.00;99.90;;;;;;5084923;28;20049;-86
2023/09/03 09:01:16;;;;;;;20.58;9.05;;;21.20;99.90;;;;;;5070160;28;20131;-85
2023/09/03 09:03:44;;;;;;;18.45;10.45;;;21.30;99.90;;;;;;5086663;28;20093;-81
2023/09/03 09:06:11;;;;;;;18.30;9.65;;;21.20;99.90;;;;;;5095044;28;20036;-86
2023/09/03 09:08:39;;;;;;;19.38;10.00;;;21.40;99.90;;;;;;5066267;28;20060;-82
2023/09/03 09:11:05;;;;;;;21.50;9.02;;;21.60;99.90;;;;;;5096436;28;20124;-81
2023/09/03 09:13:32;;;;;;;19.30;7.72;;;21.70;99.90;;;;;;5088700;28;20040;-85
2023/09/03 09:15:59;;;;;;;17.33;9.63;;;21.70;99.90;;;;;;5088017;28;20072;-80
2023/09/03 09:18:27;;;;;;;12.68;7.78;;;21.70;99.90;;;;;;5078426;28;20161;-83
2023/09/03 09:20:53;;;;;;;17.52;6.60;;;21.80;99.90;;;;;;5095496;28;20071;-82
2023/09/03 09:23:20;;;;;;;15.77;7.45;;;22.00;99.90;;;;;;5078358;28;20431;-81
2023/09/03 09:25:47;;;;;;;14.88;8.27;;;22.20;99.90;;;;;;5085336;28;20036;-85
2023/09/03 09:30:59;;;;;;;17.23;9.32;;;22.70;99.90;;;;;;5092547;28;20044;-82
2023/09/03 09:33:26;;;;;;;17.98;9.32;;;22.70;99.90;;;;;;5082137;28;20036;-83
2023/09/03 09:35:54;;;;;;;18.20;9.00;;;22.40;99.90;;;;;;5095864;28;20066;-83
2023/09/03 09:38:22;;;;;;;19.27;10.45;;;22.30;99.90;;;;;;5095154;28;20081;-82
2023/09/03 09:40:49;;;;;;;17.35;9.73;;;22.40;99.90;;;;;;5087009;28;20123;-80
2023/09/03 09:43:16;;;;;;;18.23;8.25;;;22.30;99.90;;;;;;5083109;28;20042;-81
2023/09/03 09:45:43;;;;;;;18.60;10.40;;;22.40;99.90;;;;;;5082650;28;20051;-81
2023/09/03 09:50:56;;;;;;;20.00;9.73;;;22.60;99.90;;;;;;5073412;28;20064;-85
2023/09/03 09:53:24;;;;;;;19.23;10.05;;;22.60;99.90;;;;;;5051005;28;20044;-83
2023/09/03 09:55:51;;;;;;;16.40;9.05;;;22.60;99.90;;;;;;5075328;28;20040;-82
2023/09/03 09:58:19;;;;;;;18.50;10.38;;;22.70;99.90;;;;;;5068438;28;20114;-83
2023/09/03 10:00:46;;;;;;;16.85;9.07;;;22.80;99.90;;;;;;5062906;28;20455;-83
2023/09/03 10:03:15;;;;;;;18.15;10.07;;;22.90;99.90;;;;;;5058780;28;20112;-81
2023/09/03 10:05:41;;;;;;;17.08;9.80;;;23.10;99.90;;;;;;5065590;28;20037;-85
2023/09/03 10:08:08;;;;;;;18.40;10.68;;;23.20;99.90;;;;;;5040989;28;20036;-81
2023/09/03 10:10:35;;;;;;;19.52;11.48;;;23.40;99.90;;;;;;5038234;28;20144;-82
2023/09/03 10:13:02;;;;;;;19.20;11.50;;;23.60;99.90;;;;;;5037871;28;20463;-82
2023/09/03 10:15:29;;;;;;;17.52;11.45;;;23.80;99.90;;;;;;5040255;28;20116;-85
2023/09/03 10:17:59;;;;;;;18.48;11.75;;;23.90;99.90;;;;;;5058555;28;20037;-84
2023/09/03 10:20:25;;;;;;;16.63;11.38;;;24.20;99.90;;;;;;5039028;28;20049;-83
2023/09/03 10:22:52;;;;;;;20.02;12.98;;;24.60;99.90;;;;;;5044378;28;20033;-83
2023/09/03 10:25:19;;;;;;;15.93;10.60;;;24.90;99.90;;;;;;5044910;28;20029;-80
2023/09/03 10:27:45;;;;;;;19.42;13.32;;;24.90;99.90;;;;;;5028429;28;20475;-81
2023/09/03 10:30:12;;;;;;;19.45;12.38;;;25.10;99.90;;;;;;5069756;28;20493;-82
2023/09/03 10:32:39;;;;;;;19.48;13.55;;;25.30;99.90;;;;;;5066728;28;20047;-80
2023/09/03 10:35:06;;;;;;;20.55;12.77;;;25.40;99.90;;;;;;5068968;28;20474;-82
2023/09/03 10:37:33;;;;;;;18.10;13.13;;;25.30;99.90;;;;;;5073319;28;20036;-82
2023/09/03 10:39:59;;;;;;;17.95;13.00;;;25.50;99.90;;;;;;5043352;28;20071;-81
2023/09/03 10:42:29;;;;;;;16.27;10.98;;;25.90;99.90;;;;;;5072003;28;20029;-81
2023/09/03 10:44:56;;;;;;;17.50;11.80;;;26.30;99.90;;;;;;5054397;28;20043;-85
2023/09/03 10:47:24;;;;;;;17.88;12.00;;;26.70;99.90;;;;;;5053314;28;20037;-84
2023/09/03 10:49:51;;;;;;;17.23;12.07;;;26.60;99.90;;;;;;5059539;28;20041;-81
2023/09/03 10:52:17;;;;;;;16.58;12.18;;;26.70;99.90;;;;;;5033685;28;20434;-83
2023/09/03 10:54:44;;;;;;;14.82;11.93;;;26.70;99.90;;;;;;5060308;28;20048;-82
2023/09/03 10:57:12;;;;;;;19.45;13.75;;;26.80;99.90;;;;;;5074797;28;20112;-82
2023/09/03 10:59:39;;;;;;;19.15;14.07;;;26.60;99.90;;;;;;5073303;28;20075;-83
2023/09/03 11:02:05;;;;;;;20.42;14.40;;;26.20;99.90;;;;;;5046002;28;20049;-84
2023/09/03 11:04:34;;;;;;;19.10;13.77;;;26.40;99.90;;;;;;5050913;28;20098;-85
2023/09/03 11:07:01;;;;;;;17.58;12.43;;;27.10;99.90;;;;;;5032509;28;20033;-83
2023/09/03 11:09:28;;;;;;;20.80;13.90;;;27.20;99.90;;;;;;5043061;28;20048;-84
2023/09/03 11:11:54;;;;;;;19.45;14.27;;;27.10;99.90;;;;;;5074752;28;20045;-85
2023/09/03 11:14:21;;;;;;;18.17;13.07;;;26.90;99.90;;;;;;5041357;28;20470;-82
2023/09/03 11:16:47;;;;;;;20.10;13.75;;;27.00;99.90;;;;;;5042053;28;20037;-82
2023/09/03 11:19:14;;;;;;;18.63;12.40;;;27.70;99.90;;;;;;5056516;28;20430;-82
2023/09/03 11:21:41;;;;;;;16.08;11.13;;;28.40;99.90;;;;;;5055626;28;20366;-82
2023/09/03 11:24:18;;;;;;;17.15;12.73;;;28.50;99.90;;;;;;5047019;28;20045;-84
2023/09/03 11:26:45;;;;;;;19.98;14.25;;;27.60;99.90;;;;;;5049911;28;20055;-84
2023/09/03 11:29:11;;;;;;;20.83;13.90;;;26.80;99.90;;;;;;5064959;28;20065;-81
2023/09/03 11:31:38;;;;;;;19.02;13.80;;;26.80;99.90;;;;;;5050758;28;20041;-80
2023/09/03 11:34:05;;;;;;;20.58;14.00;;;27.30;99.90;;;;;;5036218;28;20106;-84
2023/09/03 11:36:31;;;;;;;16.90;12.55;;;28.00;99.90;;;;;;5067687;28;20098;-83
2023/09/03 11:41:46;;;;;;;19.30;12.00;;;29.50;99.90;;;;;;5053059;28;20098;-85
2023/09/03 11:44:12;;;;;;;18.08;11.15;;;29.50;99.90;;;;;;5036713;28;20044;-84
2023/09/03 11:46:39;;;;;;;16.75;10.35;;;29.70;99.90;;;;;;5062574;28;20118;-82
2023/09/03 11:49:08;;;;;;;15.57;11.60;;;29.80;99.90;;;;;;5066009;28;20051;-83
2023/09/03 11:51:38;;;;;;;19.65;13.48;;;29.80;99.90;;;;;;5075119;28;20421;-85
2023/09/03 11:54:05;;;;;;;18.43;12.93;;;29.80;99.90;;;;;;5090696;28;20063;-82
2023/09/03 11:56:32;;;;;;;18.40;13.98;;;29.90;99.90;;;;;;5086205;28;20115;-89
2023/09/03 12:01:44;;;;;;;18.85;13.05;;;30.70;99.90;;;;;;5092538;28;20078;-84
2023/09/03 12:04:11;;;;;;;16.92;10.88;;;31.30;99.90;;;;;;5097114;28;20041;-88
2023/09/03 12:06:38;;;;;;;18.52;12.48;;;31.40;99.90;;;;;;5081972;28;20040;-86
2023/09/03 12:09:06;;;;;;;16.73;10.60;;;31.50;99.90;;;;;;5097691;28;20048;-86
2023/09/03 12:11:33;;;;;;;15.02;10.38;;;31.00;99.90;;;;;;5082487;28;20044;-84
2023/09/03 12:13:59;;;;;;;13.90;9.27;;;30.50;99.90;;;;;;5077356;28;20044;-86
2023/09/03 12:16:28;;;;;;;16.15;9.77;;;30.70;99.90;;;;;;5096797;28;20155;-87
2023/09/03 12:21:58;;;;;;;12.45;8.45;;;31.50;99.90;;;;;;5095555;28;20111;-86
2023/09/03 12:24:25;;;;;;;16.35;10.25;;;31.80;99.90;;;;;;5096684;28;20801;-87
2023/09/03 12:26:53;;;;;;;14.10;9.00;;;32.00;99.90;;;;;;5081508;28;20040;-89
2023/09/03 12:29:20;;;;;;;12.85;9.02;;;32.20;99.90;;;;;;5097454;28;20143;-85
2023/09/03 12:31:47;;;;;;;13.93;9.73;;;32.00;99.90;;;;;;5096873;28;20040;-84
2023/09/03 12:34:13;;;;;;;11.95;7.80;;;31.80;99.90;;;;;;5095548;28;20078;-86
2023/09/03 12:36:42;;;;;;;13.13;8.73;;;31.70;99.90;;;;;;5095389;28;20079;-87
2023/09/03 12:39:09;;;;;;;13.23;8.95;;;31.80;99.90;;;;;;5066526;28;20090;-84
2023/09/03 12:41:37;;;;;;;13.80;9.43;;;31.70;99.90;;;;;;5065347;28;20045;-85
2023/09/03 12:44:04;;;;;;;12.23;8.88;;;32.00;99.90;;;;;;5091758;28;20378;-84
2023/09/03 12:46:33;;;;;;;13.80;8.90;;;31.70;99.90;;;;;;5087755;28;20431;-83
2023/09/03 12:49:00;;;;;;;11.98;8.52;;;31.50;99.90;;;;;;5090149;28;20042;-87
2023/09/03 12:51:27;;;;;;;11.07;7.82;;;31.60;99.90;;;;;;5069650;28;20058;-85
2023/09/03 12:53:53;;;;;;;12.05;8.00;;;31.50;99.90;;;;;;5074914;28;20102;-86
2023/09/03 12:56:20;;;;;;;12.07;8.07;;;31.40;99.90;;;;;;5084308;28;20123;-86
2023/09/03 12:58:49;;;;;;;12.13;8.18;;;31.30;99.90;;;;;;5085123;28;20037;-86
2023/09/03 13:01:16;;;;;;;11.52;8.43;;;31.20;99.90;;;;;;5090007;28;20072;-87
2023/09/03 13:03:42;;;;;;;13.23;8.05;;;31.40;99.90;;;;;;5068526;28;20047;-85
2023/09/03 13:06:09;;;;;;;11.30;7.13;;;31.50;99.90;;;;;;5096653;28;20480;-85